createdAt,value
2023-05-15T00:00:39.491Z,1015.25
2023-05-15T00:02:36.569Z,1015.12
2023-05-15T00:04:36.427Z,1015.12
2023-05-15T00:06:36.796Z,1015.08
2023-05-15T00:08:36.283Z,1015.08
2023-05-15T00:10:38.173Z,1015.13
2023-05-15T00:12:36.202Z,1015.13
2023-05-15T00:14:36.877Z,1014.96
2023-05-15T00:16:36.827Z,1014.96
2023-05-15T00:18:36.259Z,1014.93
2023-05-15T00:20:36.612Z,1014.93
2023-05-15T00:22:36.340Z,1014.91
2023-05-15T00:24:36.879Z,1014.91
2023-05-15T00:26:36.404Z,1014.9
2023-05-15T00:28:35.932Z,1014.9
2023-05-15T00:30:36.565Z,1014.97
2023-05-15T00:32:36.143Z,1014.97
2023-05-15T00:34:36.469Z,1014.88
2023-05-15T00:36:36.019Z,1014.88
2023-05-15T00:38:36.628Z,1014.93
2023-05-15T00:40:36.489Z,1014.93
2023-05-15T00:42:36.873Z,1014.89
2023-05-15T00:44:36.701Z,1014.89
2023-05-15T00:46:36.286Z,1014.89
2023-05-15T00:48:36.958Z,1014.89
2023-05-15T00:50:36.773Z,1014.88
2023-05-15T00:52:36.420Z,1014.88
2023-05-15T00:54:37.131Z,1014.88
2023-05-15T00:56:36.133Z,1014.88
2023-05-15T00:58:36.844Z,1014.76
2023-05-15T01:00:43.101Z,1014.76
2023-05-15T01:02:36.564Z,1014.74
2023-05-15T01:04:36.835Z,1014.74
2023-05-15T01:06:36.166Z,1014.64
2023-05-15T01:08:36.774Z,1014.64
2023-05-15T01:10:36.561Z,1014.71
2023-05-15T01:12:36.901Z,1014.71
2023-05-15T01:14:36.509Z,1014.6
2023-05-15T01:16:36.225Z,1014.6
2023-05-15T01:18:37.391Z,1014.62
2023-05-15T01:20:36.612Z,1014.62
2023-05-15T01:22:36.130Z,1014.66
2023-05-15T01:24:36.682Z,1014.66
2023-05-15T01:26:36.053Z,1014.62
2023-05-15T01:28:36.835Z,1014.62
2023-05-15T01:30:36.452Z,1014.64
2023-05-15T01:32:36.412Z,1014.64
2023-05-15T01:34:36.607Z,1014.62
2023-05-15T01:36:36.196Z,1014.62
2023-05-15T01:38:36.837Z,1014.69
2023-05-15T01:40:36.570Z,1014.69
2023-05-15T01:42:36.048Z,1014.69
2023-05-15T01:44:36.514Z,1014.69
2023-05-15T01:46:36.394Z,1014.72
2023-05-15T01:48:36.851Z,1014.72
2023-05-15T01:50:36.739Z,1014.71
2023-05-15T01:52:35.933Z,1014.71
2023-05-15T01:54:36.561Z,1014.73
2023-05-15T01:56:36.047Z,1014.73
2023-05-15T01:58:36.562Z,1014.73
2023-05-15T02:00:40.240Z,1014.73
2023-05-15T02:02:36.908Z,1014.69
2023-05-15T02:04:36.618Z,1014.69
2023-05-15T02:06:35.990Z,1014.75
2023-05-15T02:08:36.014Z,1014.75
2023-05-15T02:10:36.818Z,1014.67
2023-05-15T02:12:36.134Z,1014.66
2023-05-15T02:14:36.892Z,1014.66
2023-05-15T02:16:36.767Z,1014.57
2023-05-15T02:18:36.234Z,1014.57
2023-05-15T02:20:36.704Z,1014.6
2023-05-15T02:22:36.256Z,1014.6
2023-05-15T02:24:35.873Z,1014.5
2023-05-15T02:26:36.461Z,1014.5
2023-05-15T02:28:36.105Z,1014.46
2023-05-15T02:30:36.802Z,1014.46
2023-05-15T02:32:36.852Z,1014.45
2023-05-15T02:34:36.016Z,1014.45
2023-05-15T02:36:36.343Z,1014.31
2023-05-15T02:38:35.963Z,1014.31
2023-05-15T02:40:36.943Z,1014.25
2023-05-15T02:42:36.254Z,1014.25
2023-05-15T02:44:36.948Z,1014.29
2023-05-15T02:46:37.137Z,1014.29
2023-05-15T02:48:36.972Z,1014.2
2023-05-15T02:50:36.584Z,1014.2
2023-05-15T02:52:36.252Z,1014.38
2023-05-15T02:54:36.631Z,1014.38
2023-05-15T02:56:36.250Z,1014.42
2023-05-15T02:58:36.649Z,1014.42
2023-05-15T03:00:40.139Z,1014.5
2023-05-15T03:02:36.770Z,1014.5
2023-05-15T03:04:36.738Z,1014.41
2023-05-15T03:06:36.177Z,1014.41
2023-05-15T03:08:36.508Z,1014.47
2023-05-15T03:10:36.458Z,1014.47
2023-05-15T03:12:35.989Z,1014.53
2023-05-15T03:14:36.504Z,1014.53
2023-05-15T03:16:36.114Z,1014.51
2023-05-15T03:18:38.874Z,1014.51
2023-05-15T03:20:36.127Z,1014.64
2023-05-15T03:22:36.706Z,1014.64
2023-05-15T03:24:36.048Z,1014.56
2023-05-15T03:28:36.485Z,1014.6
2023-05-15T03:30:36.364Z,1014.6
2023-05-15T03:32:36.967Z,1014.64
2023-05-15T03:34:36.444Z,1014.64
2023-05-15T03:36:35.856Z,1014.57
2023-05-15T03:38:36.482Z,1014.57
2023-05-15T03:40:36.467Z,1014.53
2023-05-15T03:42:36.725Z,1014.53
2023-05-15T03:44:36.206Z,1014.52
2023-05-15T03:46:37.180Z,1014.52
2023-05-15T03:48:36.461Z,1014.51
2023-05-15T03:50:37.011Z,1014.51
2023-05-15T03:52:36.521Z,1014.6
2023-05-15T03:54:36.866Z,1014.6
2023-05-15T03:56:36.478Z,1014.48
2023-05-15T03:58:36.058Z,1014.48
2023-05-15T04:00:42.232Z,1014.43
2023-05-15T04:02:40.442Z,1014.43
2023-05-15T04:04:36.273Z,1014.54
2023-05-15T04:06:36.674Z,1014.54
2023-05-15T04:08:36.239Z,1014.63
2023-05-15T04:10:37.622Z,1014.63
2023-05-15T04:12:36.576Z,1014.45
2023-05-15T04:14:36.162Z,1014.45
2023-05-15T04:16:36.911Z,1014.43
2023-05-15T04:18:36.471Z,1014.43
2023-05-15T04:20:36.133Z,1014.52
2023-05-15T04:22:36.685Z,1014.52
2023-05-15T04:24:36.213Z,1014.56
2023-05-15T04:26:36.857Z,1014.56
2023-05-15T04:28:36.394Z,1014.56
2023-05-15T04:30:36.282Z,1014.56
2023-05-15T04:32:36.679Z,1014.47
2023-05-15T04:34:35.914Z,1014.47
2023-05-15T04:36:36.719Z,1014.39
2023-05-15T04:38:36.251Z,1014.39
2023-05-15T04:40:36.153Z,1014.4
2023-05-15T04:42:38.393Z,1014.4
2023-05-15T04:44:36.052Z,1014.29
2023-05-15T04:46:37.097Z,1014.29
2023-05-15T04:48:36.568Z,1014.28
2023-05-15T04:50:36.655Z,1014.28
2023-05-15T04:52:36.600Z,1014.4
2023-05-15T04:54:36.295Z,1014.4
2023-05-15T04:56:36.667Z,1014.3
2023-05-15T04:58:36.437Z,1014.3
2023-05-15T05:00:36.166Z,1014.41
2023-05-15T05:02:36.940Z,1014.41
2023-05-15T05:04:36.475Z,1014.27
2023-05-15T05:06:36.875Z,1014.27
2023-05-15T05:08:36.499Z,1014.32
2023-05-15T05:10:36.294Z,1014.32
2023-05-15T05:12:39.290Z,1014.25
2023-05-15T05:14:36.223Z,1014.25
2023-05-15T05:16:37.189Z,1014.33
2023-05-15T05:18:36.545Z,1014.33
2023-05-15T05:20:37.355Z,1014.32
2023-05-15T05:22:36.706Z,1014.32
2023-05-15T05:24:36.030Z,1014.3
2023-05-15T05:26:39.196Z,1014.3
2023-05-15T05:28:35.837Z,1014.19
2023-05-15T05:30:36.641Z,1014.19
2023-05-15T05:32:36.425Z,1014.03
2023-05-15T05:34:36.794Z,1014.08
2023-05-15T05:36:36.243Z,1014.08
2023-05-15T05:38:36.578Z,1014.09
2023-05-15T05:40:36.450Z,1014.09
2023-05-15T05:42:36.745Z,1014.1
2023-05-15T05:44:36.440Z,1014.1
2023-05-15T05:46:36.249Z,1014.1
2023-05-15T05:48:36.914Z,1014.1
2023-05-15T05:50:36.481Z,1014.08
2023-05-15T05:52:36.778Z,1014.08
2023-05-15T05:54:36.480Z,1013.92
2023-05-15T05:56:36.694Z,1013.92
2023-05-15T05:58:49.138Z,1014.01
2023-05-15T06:00:39.913Z,1014.01
2023-05-15T06:02:36.220Z,1014.09
2023-05-15T06:04:39.334Z,1014.09
2023-05-15T06:06:36.313Z,1014.07
2023-05-15T06:08:36.038Z,1014.07
2023-05-15T06:10:37.185Z,1014.12
2023-05-15T06:14:36.701Z,1014.18
2023-05-15T06:16:36.239Z,1014.18
2023-05-15T06:18:37.126Z,1014.11
2023-05-15T06:20:36.947Z,1014.11
2023-05-15T06:22:36.029Z,1014.05
2023-05-15T06:24:36.776Z,1014.05
2023-05-15T06:26:36.162Z,1014.07
2023-05-15T06:28:36.878Z,1014.07
2023-05-15T06:30:37.260Z,1014.01
2023-05-15T06:32:36.049Z,1014.01
2023-05-15T06:34:36.486Z,1014.04
2023-05-15T06:36:35.986Z,1014.04
2023-05-15T06:38:36.485Z,1014.07
2023-05-15T06:40:37.485Z,1014.07
2023-05-15T06:42:36.625Z,1014.01
2023-05-15T06:44:37.348Z,1014.01
2023-05-15T06:46:36.655Z,1014.04
2023-05-15T06:48:36.720Z,1014.04
2023-05-15T06:50:36.832Z,1014.17
2023-05-15T06:52:36.148Z,1014.17
2023-05-15T06:54:36.597Z,1014.05
2023-05-15T06:56:35.843Z,1014.05
2023-05-15T06:58:36.506Z,1014.27
2023-05-15T07:00:39.425Z,1014.27
2023-05-15T07:02:37.317Z,1014.15
2023-05-15T07:04:36.344Z,1014.15
2023-05-15T07:06:36.721Z,1014.18
2023-05-15T07:08:36.372Z,1014.18
2023-05-15T07:10:37.604Z,1014.24
2023-05-15T07:12:36.281Z,1014.24
2023-05-15T07:14:36.660Z,1014.33
2023-05-15T07:16:36.347Z,1014.33
2023-05-15T07:18:37.659Z,1014.47
2023-05-15T07:20:41.258Z,1014.47
2023-05-15T07:22:44.648Z,1014.46
2023-05-15T07:24:37.402Z,1014.46
2023-05-15T07:27:09.417Z,1014.4
2023-05-15T07:28:35.928Z,1014.4
2023-05-15T07:30:37.266Z,1014.43
2023-05-15T07:32:36.377Z,1014.43
2023-05-15T07:34:36.887Z,1014.44
2023-05-15T07:36:36.546Z,1014.44
2023-05-15T07:38:36.294Z,1014.41
2023-05-15T07:40:36.850Z,1014.41
2023-05-15T07:42:36.197Z,1014.37
2023-05-15T07:44:36.823Z,1014.37
2023-05-15T07:46:36.585Z,1014.42
2023-05-15T07:48:36.859Z,1014.42
2023-05-15T07:50:36.851Z,1014.34
2023-05-15T07:52:36.372Z,1014.34
2023-05-15T07:54:35.952Z,1014.45
2023-05-15T07:56:36.454Z,1014.45
2023-05-15T07:58:36.039Z,1014.4
2023-05-15T08:00:40.267Z,1014.4
2023-05-15T08:02:36.598Z,1014.5
2023-05-15T08:04:36.760Z,1014.5
2023-05-15T08:06:36.812Z,1014.43
2023-05-15T08:08:36.464Z,1014.43
2023-05-15T08:10:37.023Z,1014.44
2023-05-15T08:12:36.444Z,1014.44
2023-05-15T08:14:37.184Z,1014.33
2023-05-15T08:16:37.021Z,1014.33
2023-05-15T08:18:36.558Z,1014.33
2023-05-15T08:20:36.226Z,1014.33
2023-05-15T08:22:36.802Z,1014.44
2023-05-15T08:24:36.207Z,1014.44
2023-05-15T08:26:36.708Z,1014.41
2023-05-15T08:28:36.315Z,1014.41
2023-05-15T08:30:36.162Z,1014.41
2023-05-15T08:32:36.869Z,1014.41
2023-05-15T08:34:36.282Z,1014.44
2023-05-15T08:36:37.717Z,1014.44
2023-05-15T08:38:36.422Z,1014.52
2023-05-15T08:40:51.576Z,1014.4
2023-05-15T08:44:36.056Z,1014.4
2023-05-15T08:46:36.705Z,1014.51
2023-05-15T08:48:36.914Z,1014.51
2023-05-15T08:50:36.049Z,1014.49
2023-05-15T08:52:36.604Z,1014.48
2023-05-15T08:54:36.118Z,1014.48
2023-05-15T08:56:36.680Z,1014.41
2023-05-15T08:58:36.308Z,1014.41
2023-05-15T09:00:43.350Z,1014.47
2023-05-15T09:02:37.142Z,1014.47
2023-05-15T09:04:36.657Z,1014.45
2023-05-15T09:06:36.072Z,1014.45
2023-05-15T09:08:36.508Z,1014.5
2023-05-15T09:10:36.414Z,1014.5
2023-05-15T09:12:36.684Z,1014.64
2023-05-15T09:14:36.163Z,1014.64
2023-05-15T09:16:37.053Z,1014.67
2023-05-15T09:18:36.494Z,1014.67
2023-05-15T09:20:36.169Z,1014.68
2023-05-15T09:22:36.668Z,1014.68
2023-05-15T09:24:36.393Z,1014.69
2023-05-15T09:26:35.970Z,1014.69
2023-05-15T09:28:36.521Z,1014.59
2023-05-15T09:30:36.113Z,1014.59
2023-05-15T09:32:37.179Z,1014.74
2023-05-15T09:34:36.125Z,1014.74
2023-05-15T09:36:36.641Z,1014.65
2023-05-15T09:38:36.185Z,1014.65
2023-05-15T09:40:36.971Z,1014.64
2023-05-15T09:42:36.339Z,1014.64
2023-05-15T09:44:35.841Z,1014.72
2023-05-15T09:46:36.989Z,1014.72
2023-05-15T09:48:36.630Z,1014.65
2023-05-15T09:50:36.728Z,1014.65
2023-05-15T09:52:36.390Z,1014.64
2023-05-15T09:54:37.173Z,1014.64
2023-05-15T09:56:36.227Z,1014.65
2023-05-15T09:58:36.812Z,1014.65
2023-05-15T10:00:48.377Z,1014.63
2023-05-15T10:02:36.347Z,1014.63
2023-05-15T10:04:36.457Z,1014.77
2023-05-15T10:08:36.564Z,1014.65
2023-05-15T10:10:36.916Z,1014.65
2023-05-15T10:12:36.738Z,1014.66
2023-05-15T10:14:36.285Z,1014.66
2023-05-15T10:16:37.206Z,1014.8
2023-05-15T10:18:36.974Z,1014.8
2023-05-15T10:20:36.984Z,1014.76
2023-05-15T10:22:36.097Z,1014.76
2023-05-15T10:24:36.436Z,1014.74
2023-05-15T10:26:36.159Z,1014.74
2023-05-15T10:28:36.422Z,1014.77
2023-05-15T10:30:36.813Z,1014.77
2023-05-15T10:32:36.669Z,1014.76
2023-05-15T10:34:36.244Z,1014.76
2023-05-15T10:36:36.718Z,1014.79
2023-05-15T10:38:36.173Z,1014.79
2023-05-15T10:40:36.364Z,1014.84
2023-05-15T10:42:37.024Z,1014.84
2023-05-15T10:44:36.254Z,1014.91
2023-05-15T10:46:36.927Z,1014.91
2023-05-15T10:48:36.777Z,1014.95
2023-05-15T10:50:36.661Z,1014.95
2023-05-15T10:52:36.642Z,1014.98
2023-05-15T10:54:36.262Z,1014.98
2023-05-15T10:56:36.912Z,1014.89
2023-05-15T10:58:36.100Z,1014.89
2023-05-15T11:00:40.457Z,1014.97
2023-05-15T11:02:36.484Z,1014.97
2023-05-15T11:04:36.941Z,1015.02
2023-05-15T11:06:36.323Z,1015.02
2023-05-15T11:08:36.112Z,1015.02
2023-05-15T11:10:38.780Z,1015.02
2023-05-15T11:12:36.249Z,1015.04
2023-05-15T11:14:36.838Z,1015.04
2023-05-15T11:16:37.379Z,1014.94
2023-05-15T11:18:37.215Z,1014.94
2023-05-15T11:20:37.268Z,1015.02
2023-05-15T11:22:36.314Z,1015.02
2023-05-15T11:24:36.694Z,1014.97
2023-05-15T11:26:36.250Z,1014.97
2023-05-15T11:28:36.768Z,1014.98
2023-05-15T11:30:37.104Z,1014.98
2023-05-15T11:32:37.011Z,1014.94
2023-05-15T11:34:36.519Z,1014.94
2023-05-15T11:36:37.653Z,1015.02
2023-05-15T11:38:36.702Z,1015.02
2023-05-15T11:40:36.971Z,1015.06
2023-05-15T11:42:35.924Z,1015.06
2023-05-15T11:44:36.390Z,1015.03
2023-05-15T11:46:37.253Z,1015.03
2023-05-15T11:48:36.929Z,1015.08
2023-05-15T11:50:36.860Z,1015.08
2023-05-15T11:52:35.877Z,1014.95
2023-05-15T11:54:36.370Z,1014.95
2023-05-15T11:56:36.726Z,1014.85
2023-05-15T11:58:36.502Z,1014.85
2023-05-15T12:00:41.951Z,1014.88
2023-05-15T12:02:36.001Z,1014.88
2023-05-15T12:04:37.971Z,1014.89
2023-05-15T12:06:36.189Z,1014.89
2023-05-15T12:08:36.678Z,1014.91
2023-05-15T12:10:37.143Z,1014.91
2023-05-15T12:12:36.137Z,1014.96
2023-05-15T12:14:36.616Z,1014.96
2023-05-15T12:16:36.398Z,1014.93
2023-05-15T12:18:36.912Z,1014.99
2023-05-15T12:20:36.945Z,1014.99
2023-05-15T12:22:35.845Z,1014.98
2023-05-15T12:24:39.605Z,1014.98
2023-05-15T12:26:36.342Z,1014.99
2023-05-15T12:28:36.928Z,1014.99
2023-05-15T12:30:37.120Z,1015.06
2023-05-15T12:32:36.312Z,1015.06
2023-05-15T12:34:36.726Z,1015.07
2023-05-15T12:36:36.456Z,1015.07
2023-05-15T12:38:36.027Z,1015.08
2023-05-15T12:40:36.909Z,1015.08
2023-05-15T12:42:35.860Z,1015.17
2023-05-15T12:44:36.504Z,1015.17
2023-05-15T12:46:36.373Z,1015.22
2023-05-15T12:48:36.858Z,1015.22
2023-05-15T12:50:36.574Z,1015.17
2023-05-15T12:52:36.713Z,1015.17
2023-05-15T12:54:36.470Z,1015.18
2023-05-15T12:56:37.032Z,1015.18
2023-05-15T12:58:36.858Z,1015.12
2023-05-15T13:00:43.379Z,1015.12
2023-05-15T13:02:36.642Z,1015.03
2023-05-15T13:04:35.989Z,1015.03
2023-05-15T13:06:49.682Z,1015.14
2023-05-15T13:08:36.045Z,1015.14
2023-05-15T13:10:37.104Z,1015.14
2023-05-15T13:12:36.262Z,1015.14
2023-05-15T13:14:36.764Z,1015.22
2023-05-15T13:16:36.652Z,1015.22
2023-05-15T13:18:36.836Z,1015.22
2023-05-15T13:20:37.024Z,1015.22
2023-05-15T13:22:38.479Z,1015.25
2023-05-15T13:24:37.048Z,1015.25
2023-05-15T13:26:35.947Z,1015.25
2023-05-15T13:28:36.592Z,1015.25
2023-05-15T13:30:36.807Z,1015.35
2023-05-15T13:32:36.687Z,1015.35
2023-05-15T13:34:36.302Z,1015.33
2023-05-15T13:36:36.822Z,1015.33
2023-05-15T13:38:36.257Z,1015.27
2023-05-15T13:40:37.493Z,1015.27
2023-05-15T13:42:36.542Z,1015.19
2023-05-15T13:46:37.076Z,1015.21
2023-05-15T13:48:36.232Z,1015.21
2023-05-15T13:50:37.217Z,1015.34
2023-05-15T13:52:35.950Z,1015.34
2023-05-15T13:54:36.530Z,1015.38
2023-05-15T13:58:36.810Z,1015.36
2023-05-15T14:00:45.449Z,1015.36
2023-05-15T14:02:36.219Z,1015.28
2023-05-15T14:04:36.293Z,1015.28
2023-05-15T14:06:36.485Z,1015.29
2023-05-15T14:08:36.016Z,1015.29
2023-05-15T14:10:37.219Z,1015.22
2023-05-15T14:12:36.392Z,1015.22
2023-05-15T14:14:36.957Z,1015.24
2023-05-15T14:16:36.822Z,1015.24
2023-05-15T14:18:36.470Z,1015.36
2023-05-15T14:20:37.275Z,1015.36
2023-05-15T14:22:36.757Z,1015.32
2023-05-15T14:24:36.812Z,1015.32
2023-05-15T14:26:36.460Z,1015.27
2023-05-15T14:28:35.965Z,1015.27
2023-05-15T14:30:36.912Z,1015.44
2023-05-15T14:32:36.295Z,1015.44
2023-05-15T14:34:36.591Z,1015.48
2023-05-15T14:36:36.105Z,1015.48
2023-05-15T14:38:36.547Z,1015.34
2023-05-15T14:40:36.966Z,1015.34
2023-05-15T14:42:36.624Z,1015.37
2023-05-15T14:44:36.146Z,1015.37
2023-05-15T14:46:37.081Z,1015.46
2023-05-15T14:48:36.497Z,1015.46
2023-05-15T14:50:37.637Z,1015.53
2023-05-15T14:52:36.273Z,1015.53
2023-05-15T14:54:36.721Z,1015.52
2023-05-15T14:56:36.165Z,1015.52
2023-05-15T14:58:36.616Z,1015.45
2023-05-15T15:00:40.142Z,1015.45
2023-05-15T15:02:36.180Z,1015.48
2023-05-15T15:04:37.098Z,1015.48
2023-05-15T15:06:36.332Z,1015.47
2023-05-15T15:08:36.851Z,1015.47
2023-05-15T15:10:36.966Z,1015.42
2023-05-15T15:12:36.069Z,1015.42
2023-05-15T15:14:36.595Z,1015.44
2023-05-15T15:16:36.363Z,1015.44
2023-05-15T15:18:36.715Z,1015.63
2023-05-15T15:20:36.326Z,1015.63
2023-05-15T15:22:36.487Z,1015.58
2023-05-15T15:24:36.168Z,1015.58
2023-05-15T15:26:36.703Z,1015.62
2023-05-15T15:28:36.379Z,1015.62
2023-05-15T15:30:37.374Z,1015.62
2023-05-15T15:32:36.534Z,1015.62
2023-05-15T15:34:39.720Z,1015.68
2023-05-15T15:36:36.415Z,1015.68
2023-05-15T15:38:36.879Z,1015.63
2023-05-15T15:40:37.236Z,1015.75
2023-05-15T15:42:39.057Z,1015.75
2023-05-15T15:44:36.675Z,1015.7
2023-05-15T15:46:36.638Z,1015.7
2023-05-15T15:48:36.938Z,1015.72
2023-05-15T15:50:37.076Z,1015.72
2023-05-15T15:52:36.100Z,1015.71
2023-05-15T15:54:36.667Z,1015.71
2023-05-15T15:56:36.443Z,1015.82
2023-05-15T15:58:36.882Z,1015.82
2023-05-15T16:00:41.904Z,1015.82
2023-05-15T16:02:36.191Z,1015.82
2023-05-15T16:04:36.945Z,1015.87
2023-05-15T16:06:36.191Z,1015.87
2023-05-15T16:08:36.951Z,1015.99
2023-05-15T16:10:47.264Z,1015.99
2023-05-15T16:12:36.872Z,1015.91
2023-05-15T16:14:36.229Z,1015.91
2023-05-15T16:16:35.947Z,1015.96
2023-05-15T16:18:36.696Z,1015.96
2023-05-15T16:20:36.963Z,1015.98
2023-05-15T16:22:36.595Z,1015.98
2023-05-15T16:24:36.338Z,1016.08
2023-05-15T16:26:36.856Z,1016.08
2023-05-15T16:28:36.309Z,1016.04
2023-05-15T16:30:52.158Z,1016.04
2023-05-15T16:32:36.594Z,1016.1
2023-05-15T16:34:38.385Z,1016.1
2023-05-15T16:36:36.708Z,1016.16
2023-05-15T16:38:36.394Z,1016.16
2023-05-15T16:40:37.320Z,1016.33
2023-05-15T16:42:36.489Z,1016.33
2023-05-15T16:44:35.908Z,1016.26
2023-05-15T16:46:36.865Z,1016.26
2023-05-15T16:48:36.431Z,1016.27
2023-05-15T16:50:37.028Z,1016.27
2023-05-15T16:52:35.970Z,1016.24
2023-05-15T16:54:36.660Z,1016.24
2023-05-15T16:56:36.204Z,1016.38
2023-05-15T16:58:36.772Z,1016.38
2023-05-15T17:00:42.658Z,1016.4
2023-05-15T17:02:36.951Z,1016.4
2023-05-15T17:04:36.266Z,1016.43
2023-05-15T17:06:36.576Z,1016.43
2023-05-15T17:08:36.419Z,1016.44
2023-05-15T17:10:37.303Z,1016.44
2023-05-15T17:12:36.295Z,1016.5
2023-05-15T17:14:36.983Z,1016.5
2023-05-15T17:16:36.486Z,1016.44
2023-05-15T17:18:36.170Z,1016.44
2023-05-15T17:20:38.025Z,1016.38
2023-05-15T17:24:49.944Z,1016.58
2023-05-15T17:26:35.764Z,1016.58
2023-05-15T17:28:37.977Z,1016.56
2023-05-15T17:30:37.372Z,1016.56
2023-05-15T17:32:37.405Z,1016.73
2023-05-15T17:34:36.049Z,1016.73
2023-05-15T17:36:36.688Z,1016.74
2023-05-15T17:38:36.456Z,1016.74
2023-05-15T17:40:36.079Z,1016.84
2023-05-15T17:42:36.593Z,1016.84
2023-05-15T17:44:36.125Z,1016.75
2023-05-15T17:46:36.956Z,1016.75
2023-05-15T17:48:36.262Z,1016.8
2023-05-15T17:50:37.833Z,1016.8
2023-05-15T17:52:36.318Z,1016.91
2023-05-15T17:54:36.695Z,1016.91
2023-05-15T17:56:36.312Z,1017.05
2023-05-15T17:58:35.912Z,1017.05
2023-05-15T18:00:39.428Z,1017.02
2023-05-15T18:02:36.124Z,1017.02
2023-05-15T18:04:37.135Z,1016.96
2023-05-15T18:06:36.344Z,1016.96
2023-05-15T18:08:36.662Z,1017.15
2023-05-15T18:10:36.485Z,1017.15
2023-05-15T18:12:36.757Z,1017.1
2023-05-15T18:14:37.455Z,1017.1
2023-05-15T18:16:36.216Z,1017.05
2023-05-15T18:18:37.216Z,1017.05
2023-05-15T18:20:36.258Z,1017.19
2023-05-15T18:22:36.785Z,1017.19
2023-05-15T18:24:36.449Z,1017.22
2023-05-15T18:26:36.717Z,1017.22
2023-05-15T18:28:36.349Z,1017.25
2023-05-15T18:30:37.049Z,1017.25
2023-05-15T18:32:36.896Z,1017.34
2023-05-15T18:34:36.308Z,1017.34
2023-05-15T18:36:38.632Z,1017.19
2023-05-15T18:38:36.220Z,1017.19
2023-05-15T18:40:36.974Z,1017.34
2023-05-15T18:42:36.514Z,1017.34
2023-05-15T18:44:36.062Z,1017.33
2023-05-15T18:46:36.632Z,1017.33
2023-05-15T18:48:36.163Z,1017.47
2023-05-15T18:50:36.769Z,1017.47
2023-05-15T18:52:36.170Z,1017.41
2023-05-15T18:54:36.536Z,1017.41
2023-05-15T18:56:36.099Z,1017.53
2023-05-15T18:58:36.678Z,1017.53
2023-05-15T19:00:59.839Z,1017.58
2023-05-15T19:02:37.919Z,1017.58
2023-05-15T19:04:36.525Z,1017.64
2023-05-15T19:06:36.140Z,1017.64
2023-05-15T19:08:36.509Z,1017.68
2023-05-15T19:10:36.755Z,1017.79
2023-05-15T19:12:35.979Z,1017.79
2023-05-15T19:14:36.494Z,1017.79
2023-05-15T19:16:36.297Z,1017.79
2023-05-15T19:18:36.835Z,1017.75
2023-05-15T19:20:36.846Z,1017.75
2023-05-15T19:22:36.680Z,1017.91
2023-05-15T19:24:36.374Z,1017.91
2023-05-15T19:26:35.981Z,1017.96
2023-05-15T19:28:36.562Z,1017.96
2023-05-15T19:30:36.533Z,1017.85
2023-05-15T19:34:36.172Z,1017.93
2023-05-15T19:36:36.720Z,1017.93
2023-05-15T19:38:36.418Z,1018.11
2023-05-15T19:40:36.738Z,1018.11
2023-05-15T19:42:36.629Z,1018.03
2023-05-15T19:44:36.425Z,1018.03
2023-05-15T19:46:36.208Z,1018.11
2023-05-15T19:48:36.639Z,1018.11
2023-05-15T19:50:36.831Z,1018.02
2023-05-15T19:52:36.765Z,1018.02
2023-05-15T19:54:36.640Z,1018.15
2023-05-15T19:56:36.005Z,1018.15
2023-05-15T19:58:36.540Z,1018.16
2023-05-15T20:00:40.210Z,1018.16
2023-05-15T20:02:36.926Z,1018.19
2023-05-15T20:04:36.345Z,1018.19
2023-05-15T20:06:36.458Z,1018.31
2023-05-15T20:08:36.703Z,1018.31
2023-05-15T20:10:36.929Z,1018.32
2023-05-15T20:12:38.855Z,1018.32
2023-05-15T20:14:52.570Z,1018.23
2023-05-15T20:16:36.443Z,1018.23
2023-05-15T20:18:36.844Z,1018.4
2023-05-15T20:20:36.793Z,1018.4
2023-05-15T20:22:36.861Z,1018.28
2023-05-15T20:24:36.583Z,1018.28
2023-05-15T20:26:36.083Z,1018.39
2023-05-15T20:28:36.649Z,1018.39
2023-05-15T20:30:36.834Z,1018.46
2023-05-15T20:32:37.232Z,1018.46
2023-05-15T20:34:36.246Z,1018.4
2023-05-15T20:36:36.758Z,1018.4
2023-05-15T20:38:36.235Z,1018.42
2023-05-15T20:40:37.400Z,1018.42
2023-05-15T20:42:36.645Z,1018.53
2023-05-15T20:44:35.979Z,1018.53
2023-05-15T20:46:40.375Z,1018.58
2023-05-15T20:48:36.002Z,1018.58
2023-05-15T20:50:37.119Z,1018.59
2023-05-15T20:52:36.205Z,1018.59
2023-05-15T20:54:36.800Z,1018.7
2023-05-15T20:56:36.506Z,1018.7
2023-05-15T20:58:36.103Z,1018.64
2023-05-15T21:00:41.557Z,1018.64
2023-05-15T21:02:36.269Z,1018.7
2023-05-15T21:04:36.276Z,1018.7
2023-05-15T21:06:36.273Z,1018.71
2023-05-15T21:08:36.748Z,1018.71
2023-05-15T21:10:36.854Z,1018.78
2023-05-15T21:12:36.017Z,1018.78
2023-05-15T21:14:36.665Z,1018.77
2023-05-15T21:16:36.168Z,1018.77
2023-05-15T21:18:36.694Z,1018.75
2023-05-15T21:20:36.494Z,1018.75
2023-05-15T21:22:36.661Z,1018.85
2023-05-15T21:24:36.405Z,1018.85
2023-05-15T21:26:36.732Z,1018.94
2023-05-15T21:28:36.324Z,1018.94
2023-05-15T21:30:37.370Z,1018.94
2023-05-15T21:32:36.638Z,1018.94
2023-05-15T21:34:36.907Z,1018.83
2023-05-15T21:36:36.415Z,1018.83
2023-05-15T21:38:36.173Z,1018.96
2023-05-15T21:40:37.412Z,1018.96
2023-05-15T21:42:36.332Z,1018.92
2023-05-15T21:44:36.744Z,1018.92
2023-05-15T21:46:36.685Z,1018.93
2023-05-15T21:48:36.124Z,1018.93
2023-05-15T21:50:37.138Z,1019
2023-05-15T21:52:36.093Z,1019
2023-05-15T21:54:36.588Z,1018.87
2023-05-15T21:56:36.120Z,1018.87
2023-05-15T21:58:36.608Z,1019.04
2023-05-15T22:00:36.977Z,1019.04
2023-05-15T22:02:36.254Z,1018.99
2023-05-15T22:04:36.809Z,1018.99
2023-05-15T22:06:36.120Z,1019
2023-05-15T22:08:36.827Z,1019
2023-05-15T22:10:37.080Z,1019.08
2023-05-15T22:12:36.864Z,1019.08
2023-05-15T22:14:39.614Z,1019.05
2023-05-15T22:16:36.342Z,1019.05
2023-05-15T22:18:36.958Z,1019.11
2023-05-15T22:22:36.032Z,1019.07
2023-05-15T22:24:36.455Z,1019.07
2023-05-15T22:26:35.951Z,1019.25
2023-05-15T22:28:36.582Z,1019.19
2023-05-15T22:30:36.256Z,1019.19
2023-05-15T22:32:36.845Z,1019.21
2023-05-15T22:34:36.133Z,1019.21
2023-05-15T22:36:36.645Z,1019.23
2023-05-15T22:38:36.293Z,1019.23
2023-05-15T22:40:37.534Z,1019.19
2023-05-15T22:42:36.484Z,1019.19
2023-05-15T22:44:36.249Z,1019.13
2023-05-15T22:46:36.764Z,1019.13
2023-05-15T22:48:36.312Z,1019.23
2023-05-15T22:50:37.052Z,1019.23
2023-05-15T22:52:37.266Z,1019.26
2023-05-15T22:54:35.948Z,1019.26
2023-05-15T22:56:36.622Z,1019.35
2023-05-15T22:58:36.207Z,1019.35
2023-05-15T23:00:39.782Z,1019.43
2023-05-15T23:02:36.435Z,1019.43
2023-05-15T23:04:36.522Z,1019.52
2023-05-15T23:06:36.610Z,1019.52
2023-05-15T23:08:36.379Z,1019.5
2023-05-15T23:10:37.577Z,1019.5
2023-05-15T23:12:36.725Z,1019.56
2023-05-15T23:14:36.236Z,1019.56
2023-05-15T23:16:37.570Z,1019.44
2023-05-15T23:20:37.811Z,1019.54
2023-05-15T23:22:36.704Z,1019.54
2023-05-15T23:24:36.466Z,1019.47
2023-05-15T23:26:36.959Z,1019.47
2023-05-15T23:28:36.328Z,1019.48
2023-05-15T23:30:37.486Z,1019.48
2023-05-15T23:32:36.545Z,1019.45
2023-05-15T23:34:35.900Z,1019.45
2023-05-15T23:36:36.438Z,1019.42
2023-05-15T23:38:36.071Z,1019.42
2023-05-15T23:40:37.122Z,1019.39
2023-05-15T23:42:36.105Z,1019.39
2023-05-15T23:44:36.795Z,1019.44
2023-05-15T23:46:36.543Z,1019.44
2023-05-15T23:48:36.088Z,1019.26
2023-05-15T23:50:36.835Z,1019.26
2023-05-15T23:52:36.088Z,1019.39
2023-05-15T23:54:36.731Z,1019.39
2023-05-15T23:56:36.208Z,1019.48
2023-05-15T23:58:35.924Z,1019.48
